Time;durP1;ratioP1;P1;durP2;ratioP2;P2;SDS_P1;SDS_P2;PMS_P1;PMS_P2;Temp;Humidity;BMP_temperature;BMP_pressure;BME280_temperature;BME280_humidity;BME280_pressure;Samples;Min_cycle;Max_cycle;Signal;HPM_P1;HPM_P2
2023/03/31 00:00:59;;;;;;;;;;;;;;;;;;5052765;28;19974;-82
2023/03/31 00:04:05;;;;;;;;;;;;;;;;;;5052642;28;20380;-82
2023/03/31 00:07:08;;;;;;;;;;;;;;;;;;5052510;28;20007;-82
2023/03/31 00:10:11;;;;;;;;;;;;;;;;;;5052559;28;19920;-82
2023/03/31 00:13:15;;;;;;;;;;;;;;;;;;5052410;28;20333;-81
2023/03/31 00:16:18;;;;;;;;;;;;;;;;;;5075687;28;19960;-81
2023/03/31 00:19:21;;;;;;;;;;;;;;;;;;5056613;28;19939;-81
2023/03/31 00:22:26;;;;;;;;;;;;;;;;;;5056239;28;19919;-81
2023/03/31 00:25:29;;;;;;;;;;;;;;;;;;5056086;28;19966;-81
2023/03/31 00:28:32;;;;;;;;;;;;;;;;;;5056175;28;19919;-81
2023/03/31 00:31:34;;;;;;;;;;;;;;;;;;5078642;28;20276;-81
2023/03/31 00:34:37;;;;;;;;;;;;;;;;;;5055144;28;20340;-81
2023/03/31 00:37:42;;;;;;;;;;;;;;;;;;5056188;28;19970;-81
2023/03/31 00:40:45;;;;;;;;;;;;;;;;;;5066584;28;19920;-81
2023/03/31 00:43:49;;;;;;;;;;;;;;;;;;5054879;28;19935;-81
2023/03/31 00:46:52;;;;;;;;;;;;;;;;;;5055313;28;19928;-81
2023/03/31 00:49:56;;;;;;;;;;;;;;;;;;5054954;28;20403;-81
2023/03/31 00:52:59;;;;;;;;;;;;;;;;;;5055695;28;19927;-82
2023/03/31 00:56:02;;;;;;;;;;;;;;;;;;5054550;28;19927;-82
2023/03/31 00:59:06;;;;;;;;;;;;;;;;;;5055524;28;19920;-81
2023/03/31 01:02:10;;;;;;;;;;;;;;;;;;5055552;28;19940;-81
2023/03/31 01:05:12;;;;;;;;;;;;;;;;;;5055452;28;19924;-81
2023/03/31 01:08:15;;;;;;;;;;;;;;;;;;5066406;28;19919;-81
2023/03/31 01:11:18;;;;;;;;;;;;;;;;;;5055395;28;19924;-81
2023/03/31 01:14:21;;;;;;;;;;;;;;;;;;5077694;28;20027;-80
2023/03/31 01:17:28;;;;;;;;;;;;;;;;;;5055321;28;19940;-80
2023/03/31 01:20:31;;;;;;;;;;;;;;;;;;5077581;28;19920;-79
2023/03/31 01:23:34;;;;;;;;;;;;;;;;;;5055166;28;19994;-80
2023/03/31 01:26:37;;;;;;;;;;;;;;;;;;5054449;28;19932;-79
2023/03/31 01:29:40;;;;;;;;;;;;;;;;;;5055327;28;19920;-79
2023/03/31 01:32:45;;;;;;;;;;;;;;;;;;5054984;28;19920;-79
2023/03/31 01:35:49;;;;;;;;;;;;;;;;;;5054065;28;19959;-80
2023/03/31 01:38:51;;;;;;;;;;;;;;;;;;5054897;28;19920;-80
2023/03/31 01:41:55;;;;;;;;;;;;;;;;;;5053933;28;19920;-80
2023/03/31 01:44:58;;;;;;;;;;;;;;;;;;5065466;28;19924;-80
2023/03/31 01:48:01;;;;;;;;;;;;;;;;;;5077387;28;20019;-80
2023/03/31 01:51:04;;;;;;;;;;;;;;;;;;5054712;28;20007;-80
2023/03/31 01:54:07;;;;;;;;;;;;;;;;;;5054671;28;19924;-80
2023/03/31 01:57:10;;;;;;;;;;;;;;;;;;5054744;28;19920;-80
2023/03/31 02:00:13;;;;;;;;;;;;;;;;;;5076778;28;19936;-80
2023/03/31 02:03:16;;;;;;;;;;;;;;;;;;5054265;28;20411;-80
2023/03/31 02:06:19;;;;;;;;;;;;;;;;;;5054734;28;20467;-80
2023/03/31 02:09:21;;;;;;;;;;;;;;;;;;5053553;28;19966;-80
2023/03/31 02:12:24;;;;;;;;;;;;;;;;;;5065310;28;19959;-79
2023/03/31 02:15:27;;;;;;;;;;;;;;;;;;5053552;28;19967;-80
2023/03/31 02:18:31;;;;;;;;;;;;;;;;;;5054089;28;19920;-80
2023/03/31 02:21:34;;;;;;;;;;;;;;;;;;5054078;28;19923;-80
2023/03/31 02:24:40;;;;;;;;;;;;;;;;;;5053892;28;19924;-80
2023/03/31 02:27:43;;;;;;;;;;;;;;;;;;5053018;28;20502;-80
2023/03/31 02:30:46;;;;;;;;;;;;;;;;;;5053962;28;19931;-80
2023/03/31 02:33:49;;;;;;;;;;;;;;;;;;5054233;28;19919;-79
2023/03/31 02:36:52;;;;;;;;;;;;;;;;;;5053771;28;19955;-79
2023/03/31 02:39:55;;;;;;;;;;;;;;;;;;5052827;28;19919;-79
2023/03/31 02:42:58;;;;;;;;;;;;;;;;;;5053538;28;19966;-79
2023/03/31 02:46:01;;;;;;;;;;;;;;;;;;5053493;28;20020;-79
2023/03/31 02:49:06;;;;;;;;;;;;;;;;;;5064112;28;19919;-79
2023/03/31 02:52:09;;;;;;;;;;;;;;;;;;5053660;28;20395;-79
2023/03/31 02:55:13;;;;;;;;;;;;;;;;;;5052343;28;19971;-79
2023/03/31 02:58:17;;;;;;;;;;;;;;;;;;5053510;28;19963;-79
2023/03/31 03:01:20;;;;;;;;;;;;;;;;;;5063917;28;19920;-79
2023/03/31 03:04:26;;;;;;;;;;;;;;;;;;5053118;28;20378;-80
2023/03/31 03:07:29;;;;;;;;;;;;;;;;;;5053145;28;19967;-79
2023/03/31 03:10:32;;;;;;;;;;;;;;;;;;5052259;28;19958;-80
2023/03/31 03:13:35;;;;;;;;;;;;;;;;;;5064010;28;20050;-81
2023/03/31 03:16:38;;;;;;;;;;;;;;;;;;5053305;28;20376;-81
2023/03/31 03:19:41;;;;;;;;;;;;;;;;;;5052986;28;20009;-81
2023/03/31 03:22:44;;;;;;;;;;;;;;;;;;5052879;28;19920;-81
2023/03/31 03:25:47;;;;;;;;;;;;;;;;;;5075293;28;19943;-81
2023/03/31 03:28:50;;;;;;;;;;;;;;;;;;5053256;28;19967;-80
2023/03/31 03:31:53;;;;;;;;;;;;;;;;;;5052990;28;20086;-80
2023/03/31 03:34:57;;;;;;;;;;;;;;;;;;5052775;28;19966;-80
2023/03/31 03:38:00;;;;;;;;;;;;;;;;;;5052901;28;19987;-80
2023/03/31 03:41:04;;;;;;;;;;;;;;;;;;5052828;28;19920;-81
2023/03/31 03:44:07;;;;;;;;;;;;;;;;;;5052666;28;20388;-81
2023/03/31 03:47:10;;;;;;;;;;;;;;;;;;5053094;28;19920;-80
2023/03/31 03:50:13;;;;;;;;;;;;;;;;;;5063453;28;19958;-80
2023/03/31 03:53:17;;;;;;;;;;;;;;;;;;5052858;28;19938;-81
2023/03/31 03:56:20;;;;;;;;;;;;;;;;;;5013001;28;19928;-80
2023/03/31 03:59:23;;;;;;;;;;;;;;;;;;5013000;28;20296;-80
2023/03/31 04:02:27;;;;;;;;;;;;;;;;;;5011498;28;19936;-77
2023/03/31 04:05:30;;;;;;;;;;;;;;;;;;5012789;28;20328;-81
2023/03/31 04:08:33;;;;;;;;;;;;;;;;;;5012066;28;20065;-82
2023/03/31 04:11:35;;;;;;;;;;;;;;;;;;5012946;28;19920;-82
2023/03/31 04:14:39;;;;;;;;;;;;;;;;;;5012940;28;19921;-80
2023/03/31 04:17:49;;;;;;;;;;;;;;;;;;5011020;28;19921;-81
2023/03/31 04:21:04;;;;;;;;;;;;;;;;;;5010701;28;20403;-82
2023/03/31 04:24:07;;;;;;;;;;;;;;;;;;5009600;28;19924;-81
2023/03/31 04:27:12;;;;;;;;;;;;;;;;;;5012618;28;20325;-80
2023/03/31 04:30:29;;;;;;;;;;;;;;;;;;5012928;28;19968;-79
2023/03/31 04:33:38;;;;;;;;;;;;;;;;;;5012657;28;19920;-81
2023/03/31 04:36:41;;;;;;;;;;;;;;;;;;5012630;28;19920;-80
2023/03/31 04:39:45;;;;;;;;;;;;;;;;;;5012565;28;19920;-82
2023/03/31 04:42:48;;;;;;;;;;;;;;;;;;5012491;28;20332;-82
2023/03/31 04:45:52;;;;;;;;;;;;;;;;;;5012558;28;20388;-83
2023/03/31 04:49:00;;;;;;;;;;;;;;;;;;5011767;28;19920;-81
2023/03/31 04:52:05;;;;;;;;;;;;;;;;;;5012813;28;19964;-82
2023/03/31 04:55:08;;;;;;;;;;;;;;;;;;5033722;28;19944;-81
2023/03/31 04:58:11;;;;;;;;;;;;;;;;;;5052315;28;20391;-81
2023/03/31 05:01:17;;;;;;;;;;;;;;;;;;5051312;28;19975;-82
2023/03/31 05:04:24;;;;;;;;;;;;;;;;;;5055953;28;19982;-81
2023/03/31 05:07:27;;;;;;;;;;;;;;;;;;5054734;28;19920;-81
2023/03/31 05:10:30;;;;;;;;;;;;;;;;;;5055124;28;19920;-81
2023/03/31 05:13:34;;;;;;;;;;;;;;;;;;5055941;28;19924;-81
2023/03/31 05:16:37;;;;;;;;;;;;;;;;;;5055483;28;20430;-81
2023/03/31 05:19:44;;;;;;;;;;;;;;;;;;5055054;28;20495;-78
2023/03/31 05:22:57;;;;;;;;;;;;;;;;;;5053665;28;20320;-74
2023/03/31 05:26:00;;;;;;;;;;;;;;;;;;5055651;28;20439;-80
2023/03/31 05:29:04;;;;;;;;;;;;;;;;;;5077426;28;19923;-79
2023/03/31 05:32:07;;;;;;;;;;;;;;;;;;5077533;28;19920;-80
2023/03/31 05:35:10;;;;;;;;;;;;;;;;;;5055263;28;19919;-81
2023/03/31 05:38:14;;;;;;;;;;;;;;;;;;5055218;28;20021;-75
2023/03/31 05:41:17;;;;;;;;;;;;;;;;;;5054657;28;19975;-78
2023/03/31 05:44:20;;;;;;;;;;;;;;;;;;5054835;28;19924;-79
2023/03/31 05:47:23;;;;;;;;;;;;;;;;;;5054711;28;19919;-81
2023/03/31 05:50:26;;;;;;;;;;;;;;;;;;5065320;28;19958;-81
2023/03/31 05:53:29;;;;;;;;;;;;;;;;;;5054890;28;19966;-80
2023/03/31 05:56:34;;;;;;;;;;;;;;;;;;5053597;28;20139;-73
2023/03/31 05:59:37;;;;;;;;;;;;;;;;;;5054648;28;19955;-78
2023/03/31 06:02:40;;;;;;;;;;;;;;;;;;5054463;28;19963;-79
2023/03/31 06:05:52;;;;;;;;;;;;;;;;;;5064177;28;19927;-78
2023/03/31 06:08:55;;;;;;;;;;;;;;;;;;5054532;28;19920;-78
2023/03/31 06:11:58;;;;;;;;;;;;;;;;;;5054161;28;19943;-77
2023/03/31 06:15:00;;;;;;;;;;;;;;;;;;5053903;28;19919;-78
2023/03/31 06:18:06;;;;;;;;;;;;;;;;;;5054091;28;19920;-79
2023/03/31 06:21:09;;;;;;;;;;;;;;;;;;5053984;28;19936;-79
2023/03/31 06:24:12;;;;;;;;;;;;;;;;;;5053914;28;20004;-78
2023/03/31 06:27:15;;;;;;;;;;;;;;;;;;5052991;28;19958;-79
2023/03/31 06:30:18;;;;;;;;;;;;;;;;;;5054155;28;19924;-78
2023/03/31 06:33:21;;;;;;;;;;;;;;;;;;5053691;28;19939;-79
2023/03/31 06:36:23;;;;;;;;;;;;;;;;;;5053779;28;20379;-80
2023/03/31 06:39:27;;;;;;;;;;;;;;;;;;5051716;28;19924;-80
2023/03/31 06:42:30;;;;;;;;;;;;;;;;;;5053900;28;19919;-79
2023/03/31 06:45:33;;;;;;;;;;;;;;;;;;5053486;28;19924;-79
2023/03/31 06:52:30;;;;;;;;;;;;;;;;;;5052779;28;20016;-72
2023/03/31 06:55:33;;;;;;;;;;;;;;;;;;5053152;28;19966;-72
2023/03/31 06:58:36;;;;;;;;;;;;;;;;;;5053447;28;20292;-69
2023/03/31 07:01:41;;;;;;;;;;;;;;;;;;5053243;28;20054;-73
2023/03/31 07:04:44;;;;;;;;;;;;;;;;;;5053130;28;20342;-75
2023/03/31 07:07:47;;;;;;;;;;;;;;;;;;5053246;28;20354;-75
2023/03/31 07:10:50;;;;;;;;;;;;;;;;;;5053079;28;19919;-75
2023/03/31 07:13:53;;;;;;;;;;;;;;;;;;5052932;28;19919;-77
2023/03/31 07:16:56;;;;;;;;;;;;;;;;;;5052995;28;19920;-75
2023/03/31 07:19:59;;;;;;;;;;;;;;;;;;5052872;28;19966;-77
2023/03/31 07:23:02;;;;;;;;;;;;;;;;;;5052727;28;19967;-75
2023/03/31 07:26:05;;;;;;;;;;;;;;;;;;5052317;28;20054;-75
2023/03/31 07:29:08;;;;;;;;;;;;;;;;;;5053033;28;19924;-78
2023/03/31 07:32:11;;;;;;;;;;;;;;;;;;5052626;28;19924;-77
2023/03/31 07:35:14;;;;;;;;;;;;;;;;;;5052842;28;19919;-76
2023/03/31 07:38:17;;;;;;;;;;;;;;;;;;5052651;28;19955;-76
2023/03/31 07:41:20;;;;;;;;;;;;;;;;;;5052658;28;20328;-75
2023/03/31 07:44:23;;;;;;;;;;;;;;;;;;5074901;28;19924;-74
2023/03/31 07:47:27;;;;;;;;;;;;;;;;;;5052451;28;19951;-72
2023/03/31 07:50:30;;;;;;;;;;;;;;;;;;5052705;28;19990;-73
2023/03/31 07:53:34;;;;;;;;;;;;;;;;;;5063017;28;19924;-73
2023/03/31 07:56:37;;;;;;;;;;;;;;;;;;5052447;28;19931;-73
2023/03/31 07:59:41;;;;;;;;;;;;;;;;;;5052450;28;19967;-73
2023/03/31 08:02:43;;;;;;;;;;;;;;;;;;5052489;28;20391;-74
2023/03/31 08:05:46;;;;;;;;;;;;;;;;;;5052151;28;20332;-74
2023/03/31 08:08:49;;;;;;;;;;;;;;;;;;5052357;28;20284;-74
2023/03/31 08:11:53;;;;;;;;;;;;;;;;;;5051338;28;19919;-73
2023/03/31 08:14:56;;;;;;;;;;;;;;;;;;5052219;28;19965;-73
2023/03/31 08:17:59;;;;;;;;;;;;;;;;;;5052138;28;19919;-74
2023/03/31 08:21:02;;;;;;;;;;;;;;;;;;5052332;28;19959;-71
2023/03/31 08:24:05;;;;;;;;;;;;;;;;;;5052217;28;19927;-71
2023/03/31 08:27:11;;;;;;;;;;;;;;;;;;5052249;28;19935;-71
2023/03/31 08:30:14;;;;;;;;;;;;;;;;;;5052487;28;20467;-72
2023/03/31 08:33:17;;;;;;;;;;;;;;;;;;5051292;28;19979;-73
2023/03/31 08:36:20;;;;;;;;;;;;;;;;;;5052259;28;20340;-71
2023/03/31 08:39:23;;;;;;;;;;;;;;;;;;5056116;28;19920;-74
2023/03/31 08:42:26;;;;;;;;;;;;;;;;;;5056033;28;20027;-74
2023/03/31 08:45:29;;;;;;;;;;;;;;;;;;5055837;28;20019;-75
2023/03/31 08:48:31;;;;;;;;;;;;;;;;;;5056033;28;19920;-75
2023/03/31 08:51:34;;;;;;;;;;;;;;;;;;5055695;28;20033;-67
2023/03/31 08:54:37;;;;;;;;;;;;;;;;;;5055630;28;19955;-76
2023/03/31 08:57:41;;;;;;;;;;;;;;;;;;5055683;28;19919;-75
2023/03/31 09:00:44;;;;;;;;;;;;;;;;;;5055473;28;20297;-75
2023/03/31 09:03:47;;;;;;;;;;;;;;;;;;5055675;28;19943;-75
2023/03/31 09:06:49;;;;;;;;;;;;;;;;;;5055303;28;19919;-74
2023/03/31 09:09:52;;;;;;;;;;;;;;;;;;5055457;28;19983;-74
2023/03/31 09:12:58;;;;;;;;;;;;;;;;;;5055001;28;20265;-73
2023/03/31 09:16:02;;;;;;;;;;;;;;;;;;5055407;28;20399;-73
2023/03/31 09:19:05;;;;;;;;;;;;;;;;;;5055788;28;19939;-72
2023/03/31 09:22:09;;;;;;;;;;;;;;;;;;5055180;28;19919;-73
2023/03/31 09:25:12;;;;;;;;;;;;;;;;;;5055063;28;20280;-73
2023/03/31 09:28:16;;;;;;;;;;;;;;;;;;5077105;28;19959;-74
2023/03/31 09:31:19;;;;;;;;;;;;;;;;;;5054900;28;20419;-73
2023/03/31 09:34:22;;;;;;;;;;;;;;;;;;5055142;28;19940;-73
2023/03/31 09:37:25;;;;;;;;;;;;;;;;;;5055046;28;19919;-73
2023/03/31 09:40:28;;;;;;;;;;;;;;;;;;5054806;28;19920;-73
2023/03/31 09:43:31;;;;;;;;;;;;;;;;;;5054631;28;19920;-74
2023/03/31 09:46:34;;;;;;;;;;;;;;;;;;5054615;28;20055;-73
2023/03/31 09:49:37;;;;;;;;;;;;;;;;;;5054475;28;19939;-73
2023/03/31 09:52:40;;;;;;;;;;;;;;;;;;5054977;28;19966;-74
2023/03/31 09:55:43;;;;;;;;;;;;;;;;;;5054271;28;20027;-73
2023/03/31 09:58:46;;;;;;;;;;;;;;;;;;5054392;28;19920;-74
2023/03/31 10:01:49;;;;;;;;;;;;;;;;;;5054565;28;19920;-74
2023/03/31 10:04:53;;;;;;;;;;;;;;;;;;5054402;28;20328;-74
2023/03/31 10:07:57;;;;;;;;;;;;;;;;;;5054323;28;19920;-73
2023/03/31 10:11:00;;;;;;;;;;;;;;;;;;5054242;28;19943;-74
2023/03/31 10:14:04;;;;;;;;;;;;;;;;;;5054324;28;19946;-75
2023/03/31 10:17:07;;;;;;;;;;;;;;;;;;5053656;28;19931;-76
2023/03/31 10:20:09;;;;;;;;;;;;;;;;;;5053891;28;19920;-76
2023/03/31 10:23:12;;;;;;;;;;;;;;;;;;5054033;28;19920;-75
2023/03/31 10:26:15;;;;;;;;;;;;;;;;;;5054250;28;19974;-74
2023/03/31 10:29:18;;;;;;;;;;;;;;;;;;5054101;28;19924;-75
2023/03/31 10:32:22;;;;;;;;;;;;;;;;;;5054023;28;20384;-75
2023/03/31 10:35:25;;;;;;;;;;;;;;;;;;5053760;28;20403;-74
2023/03/31 10:38:28;;;;;;;;;;;;;;;;;;5054139;28;20317;-73
2023/03/31 10:41:31;;;;;;;;;;;;;;;;;;5053620;28;19963;-74
2023/03/31 10:44:35;;;;;;;;;;;;;;;;;;5053498;28;19924;-76
2023/03/31 10:47:38;;;;;;;;;;;;;;;;;;5075849;28;19923;-74
2023/03/31 10:50:41;;;;;;;;;;;;;;;;;;5052402;28;19920;-77
2023/03/31 10:53:43;;;;;;;;;;;;;;;;;;5052593;28;19920;-76
2023/03/31 10:56:46;;;;;;;;;;;;;;;;;;5052994;28;19928;-75
2023/03/31 10:59:51;;;;;;;;;;;;;;;;;;5052720;28;20412;-75
2023/03/31 11:02:54;;;;;;;;;;;;;;;;;;5053231;28;19962;-77
2023/03/31 11:05:56;;;;;;;;;;;;;;;;;;5053160;28;19924;-76
2023/03/31 11:09:00;;;;;;;;;;;;;;;;;;5053473;28;19963;-80
2023/03/31 11:12:03;;;;;;;;;;;;;;;;;;5052763;28;19978;-75
2023/03/31 11:15:06;;;;;;;;;;;;;;;;;;5053097;28;19936;-75
2023/03/31 11:18:09;;;;;;;;;;;;;;;;;;5052258;28;20435;-76
2023/03/31 11:21:12;;;;;;;;;;;;;;;;;;5053120;28;19982;-77
2023/03/31 11:24:15;;;;;;;;;;;;;;;;;;5052911;28;19936;-76
2023/03/31 11:27:18;;;;;;;;;;;;;;;;;;5052884;28;20388;-75
2023/03/31 11:30:23;;;;;;;;;;;;;;;;;;5069941;28;20010;-78
2023/03/31 11:33:25;;;;;;;;;;;;;;;;;;5070264;28;19972;-79
2023/03/31 11:36:29;;;;;;;;;;;;;;;;;;5070653;28;19924;-78
2023/03/31 11:39:32;;;;;;;;;;;;;;;;;;5069196;28;20292;-78
2023/03/31 11:42:35;;;;;;;;;;;;;;;;;;5071374;28;20429;-78
2023/03/31 11:45:39;;;;;;;;;;;;;;;;;;5068913;28;19978;-77
2023/03/31 11:48:43;;;;;;;;;;;;;;;;;;5068921;28;19918;-76
2023/03/31 11:51:46;;;;;;;;;;;;;;;;;;5070080;28;19970;-75
2023/03/31 11:54:53;;;;;;;;;;;;;;;;;;5070740;28;20011;-77
2023/03/31 11:57:57;;;;;;;;;;;;;;;;;;5070891;28;19935;-76
2023/03/31 12:01:01;;;;;;;;;;;;;;;;;;5068487;28;19923;-77
2023/03/31 12:04:05;;;;;;;;;;;;;;;;;;5071111;28;20271;-75
2023/03/31 12:07:09;;;;;;;;;;;;;;;;;;5068827;28;20407;-76
2023/03/31 12:10:12;;;;;;;;;;;;;;;;;;5070987;28;19920;-76
2023/03/31 12:13:14;;;;;;;;;;;;;;;;;;5072153;28;19953;-75
2023/03/31 12:16:18;;;;;;;;;;;;;;;;;;5074203;28;20359;-75
2023/03/31 12:19:26;;;;;;;;;;;;;;;;;;5072201;28;19919;-67
2023/03/31 12:22:29;;;;;;;;;;;;;;;;;;5072743;28;20314;-77
2023/03/31 12:25:33;;;;;;;;;;;;;;;;;;5073257;28;19927;-76
2023/03/31 12:28:36;;;;;;;;;;;;;;;;;;5073562;28;19923;-76
2023/03/31 12:31:39;;;;;;;;;;;;;;;;;;5073956;28;19920;-75
2023/03/31 12:34:42;;;;;;;;;;;;;;;;;;5071514;28;19927;-76
2023/03/31 12:37:45;;;;;;;;;;;;;;;;;;5074798;28;19969;-72
2023/03/31 12:40:48;;;;;;;;;;;;;;;;;;5072181;28;20007;-75
2023/03/31 12:43:52;;;;;;;;;;;;;;;;;;5074733;28;20273;-75
2023/03/31 12:46:55;;;;;;;;;;;;;;;;;;5073095;28;20004;-75
2023/03/31 12:49:58;;;;;;;;;;;;;;;;;;5073733;28;20284;-74
2023/03/31 12:53:04;;;;;;;;;;;;;;;;;;5073888;28;20004;-75
2023/03/31 12:56:07;;;;;;;;;;;;;;;;;;5071550;28;20025;-74
2023/03/31 12:59:10;;;;;;;;;;;;;;;;;;5071969;28;19960;-74
2023/03/31 13:02:16;;;;;;;;;;;;;;;;;;5072291;28;20391;-75
2023/03/31 13:05:19;;;;;;;;;;;;;;;;;;5073087;28;20024;-74
2023/03/31 13:08:23;;;;;;;;;;;;;;;;;;5073619;28;19927;-74
2023/03/31 13:11:26;;;;;;;;;;;;;;;;;;5073745;28;19966;-74
2023/03/31 13:14:29;;;;;;;;;;;;;;;;;;5074117;28;19953;-73
2023/03/31 13:17:34;;;;;;;;;;;;;;;;;;5072278;28;20013;-73
2023/03/31 13:20:37;;;;;;;;;;;;;;;;;;5073041;28;19942;-74
2023/03/31 13:23:40;;;;;;;;;;;;;;;;;;5072101;28;20390;-73
2023/03/31 13:26:43;;;;;;;;;;;;;;;;;;5073172;28;19919;-75
2023/03/31 13:29:46;;;;;;;;;;;;;;;;;;5073517;28;19920;-75
2023/03/31 13:32:58;;;;;;;;;;;;;;;;;;5071439;28;19919;-75
2023/03/31 13:36:13;;;;;;;;;;;;;;;;;;5071591;28;19927;-78
2023/03/31 13:39:15;;;;;;;;;;;;;;;;;;5070735;28;19920;-77
2023/03/31 13:42:19;;;;;;;;;;;;;;;;;;5072383;28;20061;-74
2023/03/31 13:45:21;;;;;;;;;;;;;;;;;;5073407;28;20016;-76
2023/03/31 13:48:25;;;;;;;;;;;;;;;;;;5073212;28;19928;-75
2023/03/31 13:51:28;;;;;;;;;;;;;;;;;;5073585;28;19995;-77
2023/03/31 13:54:32;;;;;;;;;;;;;;;;;;5065964;28;20415;-77
2023/03/31 13:57:38;;;;;;;;;;;;;;;;;;5072611;28;19958;-75
2023/03/31 14:00:42;;;;;;;;;;;;;;;;;;5069808;28;19993;-75
2023/03/31 14:03:52;;;;;;;;;;;;;;;;;;5071053;28;19935;-74
2023/03/31 14:06:57;;;;;;;;;;;;;;;;;;5070868;28;19986;-74
2023/03/31 14:10:05;;;;;;;;;;;;;;;;;;5072255;28;19920;-74
2023/03/31 14:13:24;;;;;;;;;;;;;;;;;;5071878;28;19966;-75
2023/03/31 14:16:28;;;;;;;;;;;;;;;;;;5072206;28;19919;-76
2023/03/31 14:19:33;;;;;;;;;;;;;;;;;;5070431;28;19951;-75
2023/03/31 14:22:41;;;;;;;;;;;;;;;;;;5071793;28;20010;-75
2023/03/31 14:25:45;;;;;;;;;;;;;;;;;;5073234;28;19942;-74
2023/03/31 14:28:51;;;;;;;;;;;;;;;;;;5072480;28;19919;-74
2023/03/31 14:31:54;;;;;;;;;;;;;;;;;;5072533;28;19923;-76
2023/03/31 14:34:58;;;;;;;;;;;;;;;;;;5072169;28;19959;-78
2023/03/31 14:38:01;;;;;;;;;;;;;;;;;;5073211;28;19919;-75
2023/03/31 14:41:04;;;;;;;;;;;;;;;;;;5073437;28;19943;-75
2023/03/31 14:48:18;;;;;;;;;;;;;;;;;;5068781;28;20332;-75
2023/03/31 14:51:21;;;;;;;;;;;;;;;;;;5073390;28;19943;-75
2023/03/31 14:54:30;;;;;;;;;;;;;;;;;;5072947;28;20388;-75
2023/03/31 14:57:33;;;;;;;;;;;;;;;;;;5072230;28;19919;-75
2023/03/31 15:00:36;;;;;;;;;;;;;;;;;;5072468;28;19923;-76
2023/03/31 15:03:43;;;;;;;;;;;;;;;;;;5073086;28;20398;-76
2023/03/31 15:06:46;;;;;;;;;;;;;;;;;;5072790;28;19924;-76
2023/03/31 15:09:50;;;;;;;;;;;;;;;;;;5073195;28;19939;-77
2023/03/31 15:12:53;;;;;;;;;;;;;;;;;;5071555;28;20003;-77
2023/03/31 15:15:56;;;;;;;;;;;;;;;;;;5071817;28;19918;-77
2023/03/31 15:18:59;;;;;;;;;;;;;;;;;;5072617;28;19919;-77
2023/03/31 15:22:03;;;;;;;;;;;;;;;;;;5072700;28;19918;-77
2023/03/31 15:25:06;;;;;;;;;;;;;;;;;;5072421;28;19943;-76
2023/03/31 15:28:10;;;;;;;;;;;;;;;;;;5072768;28;19938;-77
2023/03/31 15:31:13;;;;;;;;;;;;;;;;;;5071143;28;20017;-77
2023/03/31 15:34:16;;;;;;;;;;;;;;;;;;5072333;28;19979;-77
2023/03/31 15:37:18;;;;;;;;;;;;;;;;;;5072411;28;19954;-77
2023/03/31 15:40:21;;;;;;;;;;;;;;;;;;5072466;28;19923;-76
2023/03/31 15:43:24;;;;;;;;;;;;;;;;;;5072164;28;19920;-75
2023/03/31 15:46:27;;;;;;;;;;;;;;;;;;5071704;28;19927;-75
2023/03/31 15:49:30;;;;;;;;;;;;;;;;;;5071859;28;19935;-74
2023/03/31 15:52:33;;;;;;;;;;;;;;;;;;5072458;28;19970;-74
2023/03/31 15:55:35;;;;;;;;;;;;;;;;;;5071975;28;19973;-74
2023/03/31 15:58:38;;;;;;;;;;;;;;;;;;5072028;28;20474;-74
2023/03/31 16:01:41;;;;;;;;;;;;;;;;;;5072042;28;19920;-74
2023/03/31 16:04:44;;;;;;;;;;;;;;;;;;5071851;28;19926;-76
2023/03/31 16:07:47;;;;;;;;;;;;;;;;;;5072031;28;19920;-76
2023/03/31 16:10:51;;;;;;;;;;;;;;;;;;5071890;28;20287;-76
2023/03/31 16:13:54;;;;;;;;;;;;;;;;;;5072135;28;19962;-73
2023/03/31 16:16:57;;;;;;;;;;;;;;;;;;5071156;28;19991;-74
2023/03/31 16:20:00;;;;;;;;;;;;;;;;;;5071968;28;20335;-74
2023/03/31 16:23:03;;;;;;;;;;;;;;;;;;5071900;28;20427;-74
2023/03/31 16:26:06;;;;;;;;;;;;;;;;;;5071725;28;20392;-74
2023/03/31 16:29:13;;;;;;;;;;;;;;;;;;5071255;28;20009;-75
2023/03/31 16:32:17;;;;;;;;;;;;;;;;;;5067519;28;19920;-76
2023/03/31 16:35:20;;;;;;;;;;;;;;;;;;5071825;28;20307;-74
2023/03/31 16:38:27;;;;;;;;;;;;;;;;;;5071904;28;20011;-75
2023/03/31 16:41:30;;;;;;;;;;;;;;;;;;5071703;28;19920;-75
2023/03/31 16:44:33;;;;;;;;;;;;;;;;;;5071566;28;20306;-75
2023/03/31 16:47:40;;;;;;;;;;;;;;;;;;5071640;28;20380;-75
2023/03/31 16:50:43;;;;;;;;;;;;;;;;;;5070590;28;19919;-75
2023/03/31 16:53:45;;;;;;;;;;;;;;;;;;5060052;28;19919;-75
2023/03/31 16:56:48;;;;;;;;;;;;;;;;;;5051799;28;20336;-75
2023/03/31 16:59:51;;;;;;;;;;;;;;;;;;5055050;28;19920;-75
2023/03/31 17:03:00;;;;;;;;;;;;;;;;;;5055646;28;19974;-75
2023/03/31 17:06:03;;;;;;;;;;;;;;;;;;5054825;28;19939;-71
2023/03/31 17:09:06;;;;;;;;;;;;;;;;;;5055781;28;19943;-76
2023/03/31 17:12:09;;;;;;;;;;;;;;;;;;5055264;28;19920;-76
2023/03/31 17:15:12;;;;;;;;;;;;;;;;;;5055315;28;20012;-76
2023/03/31 17:18:16;;;;;;;;;;;;;;;;;;5055267;28;20042;-77
2023/03/31 17:21:19;;;;;;;;;;;;;;;;;;5055272;28;19921;-77
2023/03/31 17:24:22;;;;;;;;;;;;;;;;;;5054585;28;19950;-77
2023/03/31 17:27:26;;;;;;;;;;;;;;;;;;5054787;28;20001;-75
2023/03/31 17:30:28;;;;;;;;;;;;;;;;;;5052956;28;20324;-75
2023/03/31 17:33:31;;;;;;;;;;;;;;;;;;5053070;28;19959;-74
2023/03/31 17:36:34;;;;;;;;;;;;;;;;;;5053016;28;19923;-74
2023/03/31 17:39:37;;;;;;;;;;;;;;;;;;5052010;28;19958;-75
2023/03/31 17:42:40;;;;;;;;;;;;;;;;;;5053718;28;19919;-75
2023/03/31 17:45:43;;;;;;;;;;;;;;;;;;5054723;28;20418;-74
2023/03/31 17:48:48;;;;;;;;;;;;;;;;;;5055122;28;19919;-76
2023/03/31 17:51:51;;;;;;;;;;;;;;;;;;5054876;28;20014;-77
2023/03/31 17:54:56;;;;;;;;;;;;;;;;;;5054438;28;19963;-76
2023/03/31 17:58:00;;;;;;;;;;;;;;;;;;5054848;28;19936;-75
2023/03/31 18:01:03;;;;;;;;;;;;;;;;;;5054712;28;19919;-75
2023/03/31 18:04:06;;;;;;;;;;;;;;;;;;5054395;28;20438;-75
2023/03/31 18:07:10;;;;;;;;;;;;;;;;;;5054624;28;19920;-76
2023/03/31 18:10:17;;;;;;;;;;;;;;;;;;5054366;28;19935;-76
2023/03/31 18:13:23;;;;;;;;;;;;;;;;;;5054666;28;19920;-76
2023/03/31 18:16:28;;;;;;;;;;;;;;;;;;5053494;28;19966;-76
2023/03/31 18:19:32;;;;;;;;;;;;;;;;;;5054064;28;19920;-74
2023/03/31 18:22:36;;;;;;;;;;;;;;;;;;5052945;28;20291;-74
2023/03/31 18:25:39;;;;;;;;;;;;;;;;;;5064664;28;20008;-74
2023/03/31 18:28:42;;;;;;;;;;;;;;;;;;5053899;28;19954;-75
2023/03/31 18:31:46;;;;;;;;;;;;;;;;;;5053834;28;20418;-75
2023/03/31 18:34:48;;;;;;;;;;;;;;;;;;5076523;28;20415;-77
2023/03/31 18:37:54;;;;;;;;;;;;;;;;;;5053764;28;19923;-78
2023/03/31 18:40:57;;;;;;;;;;;;;;;;;;5053687;28;19916;-76
2023/03/31 18:43:59;;;;;;;;;;;;;;;;;;5054046;28;19936;-76
2023/03/31 18:47:03;;;;;;;;;;;;;;;;;;5052982;28;19919;-76
2023/03/31 18:50:09;;;;;;;;;;;;;;;;;;5053651;28;19967;-76
2023/03/31 18:53:27;;;;;;;;;;;;;;;;;;5052974;28;19959;-77
2023/03/31 18:56:31;;;;;;;;;;;;;;;;;;5052328;28;19928;-77
2023/03/31 18:59:37;;;;;;;;;;;;;;;;;;5053343;28;19970;-77
2023/03/31 19:02:41;;;;;;;;;;;;;;;;;;5053407;28;20434;-79
2023/03/31 19:05:44;;;;;;;;;;;;;;;;;;5053200;28;20315;-76
2023/03/31 19:08:47;;;;;;;;;;;;;;;;;;5053234;28;20387;-75
2023/03/31 19:11:52;;;;;;;;;;;;;;;;;;5064145;28;20487;-75
2023/03/31 19:14:54;;;;;;;;;;;;;;;;;;5053111;28;19939;-76
2023/03/31 19:17:58;;;;;;;;;;;;;;;;;;5053095;28;19920;-77
2023/03/31 19:21:00;;;;;;;;;;;;;;;;;;5052365;28;19919;-77
2023/03/31 19:24:03;;;;;;;;;;;;;;;;;;5052878;28;20438;-78
2023/03/31 19:27:07;;;;;;;;;;;;;;;;;;5052818;28;20345;-76
2023/03/31 19:30:10;;;;;;;;;;;;;;;;;;5052812;28;19919;-77
2023/03/31 19:33:13;;;;;;;;;;;;;;;;;;5052771;28;20374;-76
2023/03/31 19:36:15;;;;;;;;;;;;;;;;;;5052709;28;19995;-76
2023/03/31 19:39:18;;;;;;;;;;;;;;;;;;5052635;28;20323;-76
2023/03/31 19:42:22;;;;;;;;;;;;;;;;;;5052594;28;19967;-76
2023/03/31 19:45:25;;;;;;;;;;;;;;;;;;5052446;28;19969;-76
2023/03/31 19:48:30;;;;;;;;;;;;;;;;;;5052607;28;19966;-76
2023/03/31 19:51:32;;;;;;;;;;;;;;;;;;5052544;28;19983;-77
2023/03/31 19:54:35;;;;;;;;;;;;;;;;;;5052357;28;20054;-77
2023/03/31 19:57:38;;;;;;;;;;;;;;;;;;5052551;28;20012;-78
2023/03/31 20:00:42;;;;;;;;;;;;;;;;;;5052353;28;19945;-78
2023/03/31 20:03:45;;;;;;;;;;;;;;;;;;5052508;28;19920;-77
2023/03/31 20:06:48;;;;;;;;;;;;;;;;;;5052498;28;19946;-77
2023/03/31 20:09:51;;;;;;;;;;;;;;;;;;5052459;28;19919;-78
2023/03/31 20:12:55;;;;;;;;;;;;;;;;;;5052610;28;19920;-78
2023/03/31 20:15:58;;;;;;;;;;;;;;;;;;5052361;28;19928;-77
2023/03/31 20:19:03;;;;;;;;;;;;;;;;;;5075182;28;19963;-76
2023/03/31 20:22:06;;;;;;;;;;;;;;;;;;5052286;28;19927;-76
2023/03/31 20:25:08;;;;;;;;;;;;;;;;;;5052314;28;19969;-77
2023/03/31 20:28:11;;;;;;;;;;;;;;;;;;5052162;28;19959;-77
2023/03/31 20:31:14;;;;;;;;;;;;;;;;;;5052211;28;19927;-76
2023/03/31 20:34:22;;;;;;;;;;;;;;;;;;5056468;28;19935;-77
2023/03/31 20:37:26;;;;;;;;;;;;;;;;;;5056211;28;19966;-77
2023/03/31 20:40:29;;;;;;;;;;;;;;;;;;5056438;28;19966;-76
2023/03/31 20:43:33;;;;;;;;;;;;;;;;;;5056099;28;19934;-76
2023/03/31 20:46:36;;;;;;;;;;;;;;;;;;5056002;28;20285;-76
2023/03/31 20:49:38;;;;;;;;;;;;;;;;;;5055860;28;19920;-77
2023/03/31 20:52:43;;;;;;;;;;;;;;;;;;5055880;28;20035;-77
2023/03/31 20:55:46;;;;;;;;;;;;;;;;;;5055521;28;19973;-76
2023/03/31 20:58:49;;;;;;;;;;;;;;;;;;5055685;28;19920;-77
2023/03/31 21:01:52;;;;;;;;;;;;;;;;;;5055269;28;19966;-77